Scot Berlin — 9HA4092 — position and weather

sailwx.info

Track history (hours):
 
Tides and Currents Weather Stations Pressure Air Temp Water Temp Dewpoint Dewpoint Depression Visibility Wind Speed Wind Dir Waves Ship Positions

Scot Berlin

Last reported at 2017-Sep-02 12:46 UTC. Time now 2017-Sep-19 22:39 UTC.
Position N 16°01' W 062°39'.
Warning: this ship's position is 17 days out of date.

Length 117 m; draft 5.2 m.

Type: Ship. MMSI: 249085000.

Date/timePositionNaut miles runAvg speedWind from/ knotsBaromVisibWave heightAir tempDewpointWater temp
2017-Sep-02 12:46N 16°01' W 062°39'6 9.5
2017-Sep-02 12:08N 16°04' W 062°34'2 9.5
2017-Sep-02 11:55N 16°05' W 062°32'6 9.3
2017-Sep-02 11:14N 16°09' W 062°27'3 9.2
2017-Sep-02 10:57N 16°10' W 062°25'4 8.7
2017-Sep-02 10:30N 16°13' W 062°21'4 8.6
2017-Sep-02 10:01N 16°15' W 062°18'4 8.4
2017-Sep-02 09:31N 16°18' W 062°14'4 8.2
2017-Sep-02 09:01N 16°20' W 062°11'4 8.3
2017-Sep-02 08:31N 16°23' W 062°07'4 8.4
2017-Sep-02 08:01N 16°25' W 062°04'4 8.4
2017-Sep-02 07:31N 16°28' W 062°01'4 8.5
2017-Sep-02 07:01N 16°30' W 061°57'4 8.6
2017-Sep-02 06:31N 16°32' W 061°53'4 8.6
2017-Sep-02 06:01N 16°35' W 061°49'4 8.6
2017-Sep-02 05:31N 16°37' W 061°45'4 8.7
2017-Sep-02 05:01N 16°39' W 061°42'4 8.6
2017-Sep-02 04:31N 16°42' W 061°38'4 8.7
2017-Sep-02 04:00N 16°44' W 061°34'4 8.6
2017-Sep-02 03:31N 16°46' W 061°30'4 8.7
2017-Sep-02 03:01N 16°49' W 061°26'4 8.9
2017-Sep-02 02:31N 16°51' W 061°22'4 8.9
2017-Sep-02 02:01N 16°53' W 061°18'4 9.0
2017-Sep-02 01:31N 16°56' W 061°15'4 9.0
2017-Sep-02 01:01N 16°59' W 061°11'5 9.1
2017-Sep-02 00:31N 17°01' W 061°07'5 9.1
2017-Sep-02 00:01N 17°04' W 061°03'5 9.0
2017-Sep-01 23:30N 17°06' W 060°59'5 9.1
2017-Sep-01 22:59N 17°09' W 060°55'  
Track history (hours):
 
Tides and Currents Weather Stations Pressure Air Temp Water Temp Dewpoint Dewpoint Depression Visibility Wind Speed Wind Dir Waves Ship Positions

Scot Berlin

Last reported at 2017-Sep-02 12:46 UTC. Time now 2017-Sep-19 22:39 UTC.
Position N 16°01' W 062°39'.
Warning: this ship's position is 17 days out of date.

Length 117 m; draft 5.2 m.

Type: Ship. MMSI: 249085000.

Date/timePositionNaut miles runAvg speedWind from/ knotsBaromVisibWave heightAir tempDewpointWater temp
2017-Sep-02 12:46N 16°01' W 062°39'6 9.5
2017-Sep-02 12:08N 16°04' W 062°34'2 9.5
2017-Sep-02 11:55N 16°05' W 062°32'6 9.3
2017-Sep-02 11:14N 16°09' W 062°27'3 9.2
2017-Sep-02 10:57N 16°10' W 062°25'4 8.7
2017-Sep-02 10:30N 16°13' W 062°21'4 8.6
2017-Sep-02 10:01N 16°15' W 062°18'4 8.4
2017-Sep-02 09:31N 16°18' W 062°14'4 8.2
2017-Sep-02 09:01N 16°20' W 062°11'4 8.3
2017-Sep-02 08:31N 16°23' W 062°07'4 8.4
2017-Sep-02 08:01N 16°25' W 062°04'4 8.4
2017-Sep-02 07:31N 16°28' W 062°01'4 8.5
2017-Sep-02 07:01N 16°30' W 061°57'4 8.6
2017-Sep-02 06:31N 16°32' W 061°53'4 8.6
2017-Sep-02 06:01N 16°35' W 061°49'4 8.6
2017-Sep-02 05:31N 16°37' W 061°45'4 8.7
2017-Sep-02 05:01N 16°39' W 061°42'4 8.6
2017-Sep-02 04:31N 16°42' W 061°38'4 8.7
2017-Sep-02 04:00N 16°44' W 061°34'4 8.6
2017-Sep-02 03:31N 16°46' W 061°30'4 8.7
2017-Sep-02 03:01N 16°49' W 061°26'4 8.9
2017-Sep-02 02:31N 16°51' W 061°22'4 8.9
2017-Sep-02 02:01N 16°53' W 061°18'4 9.0
2017-Sep-02 01:31N 16°56' W 061°15'4 9.0
2017-Sep-02 01:01N 16°59' W 061°11'5 9.1
2017-Sep-02 00:31N 17°01' W 061°07'5 9.1
2017-Sep-02 00:01N 17°04' W 061°03'5 9.0
2017-Sep-01 23:30N 17°06' W 060°59'5 9.1
2017-Sep-01 22:59N 17°09' W 060°55'  

Dump ship's entire track history